createdAt,value
2017-10-26T00:00:12.959Z,0
2017-10-26T00:00:53.412Z,0
2017-10-26T00:01:33.871Z,0
2017-10-26T00:02:14.306Z,0
2017-10-26T00:02:54.765Z,0
2017-10-26T00:03:35.209Z,0
2017-10-26T00:04:15.644Z,0
2017-10-26T00:04:56.072Z,0
2017-10-26T00:05:36.520Z,0
2017-10-26T00:06:16.963Z,0
2017-10-26T00:06:57.447Z,0
2017-10-26T00:07:37.900Z,0
2017-10-26T00:08:18.333Z,0
2017-10-26T00:08:58.771Z,0
2017-10-26T00:09:39.277Z,0
2017-10-26T00:10:19.740Z,0
2017-10-26T00:11:00.180Z,0
2017-10-26T00:11:40.611Z,0
2017-10-26T00:12:21.071Z,0
2017-10-26T00:13:01.482Z,0
2017-10-26T00:13:41.937Z,0
2017-10-26T00:14:22.374Z,0
2017-10-26T00:15:02.824Z,0
2017-10-26T00:15:43.262Z,0
2017-10-26T00:16:23.721Z,0
2017-10-26T00:17:04.165Z,0
2017-10-26T00:17:44.733Z,0
2017-10-26T00:18:25.149Z,0
2017-10-26T00:19:05.611Z,0
2017-10-26T00:19:46.054Z,0
2017-10-26T00:20:26.490Z,0
2017-10-26T00:21:06.937Z,0
2017-10-26T00:21:47.409Z,0
2017-10-26T00:22:27.861Z,0
2017-10-26T00:23:08.302Z,0
2017-10-26T00:23:48.753Z,0
2017-10-26T00:24:29.193Z,0
2017-10-26T00:25:09.649Z,0
2017-10-26T00:25:50.100Z,0
2017-10-26T00:26:30.556Z,0
2017-10-26T00:27:11.000Z,0
2017-10-26T00:27:51.469Z,0
2017-10-26T00:28:31.952Z,0
2017-10-26T00:29:12.404Z,0
2017-10-26T00:29:52.865Z,0
2017-10-26T00:30:33.341Z,0
2017-10-26T00:31:13.799Z,0
2017-10-26T00:31:54.259Z,0
2017-10-26T00:32:34.729Z,0
2017-10-26T00:33:15.193Z,0
2017-10-26T00:33:55.666Z,0
2017-10-26T00:34:36.122Z,0
2017-10-26T00:35:16.572Z,0
2017-10-26T00:35:57.014Z,0
2017-10-26T00:36:37.464Z,0
2017-10-26T00:37:17.927Z,0
2017-10-26T00:37:58.377Z,0
2017-10-26T00:38:38.847Z,0
2017-10-26T00:39:19.307Z,0
2017-10-26T00:39:59.772Z,0
2017-10-26T00:40:40.227Z,0
2017-10-26T00:41:20.686Z,0
2017-10-26T00:42:01.145Z,0
2017-10-26T00:42:41.598Z,0
2017-10-26T00:43:22.048Z,0
2017-10-26T00:44:02.505Z,0
2017-10-26T00:44:42.959Z,0
2017-10-26T00:45:23.415Z,0
2017-10-26T00:46:03.877Z,0
2017-10-26T00:46:44.333Z,0
2017-10-26T00:47:24.795Z,0
2017-10-26T00:48:05.245Z,0
2017-10-26T00:48:45.712Z,0
2017-10-26T00:49:26.165Z,0
2017-10-26T00:50:06.629Z,0
2017-10-26T00:50:47.072Z,0
2017-10-26T00:51:27.525Z,0
2017-10-26T00:52:07.974Z,0
2017-10-26T00:52:48.423Z,0
2017-10-26T00:53:28.876Z,0
2017-10-26T00:54:09.334Z,0
2017-10-26T00:54:49.811Z,0
2017-10-26T00:55:30.268Z,0
2017-10-26T00:56:10.724Z,0
2017-10-26T00:56:51.180Z,0
2017-10-26T00:57:31.640Z,0
2017-10-26T00:58:12.099Z,0
2017-10-26T00:58:52.559Z,0
2017-10-26T00:59:33.018Z,0
2017-10-26T01:00:13.474Z,0
2017-10-26T01:00:53.946Z,0
2017-10-26T01:01:34.400Z,0
2017-10-26T01:02:14.854Z,0
2017-10-26T01:02:55.300Z,0
2017-10-26T01:03:35.758Z,0
2017-10-26T01:04:16.205Z,0
2017-10-26T01:04:56.662Z,0
2017-10-26T01:05:37.112Z,0
2017-10-26T01:06:17.568Z,0
2017-10-26T01:06:58.024Z,0
2017-10-26T01:07:38.481Z,0
2017-10-26T01:08:19.046Z,0
2017-10-26T01:08:59.494Z,0
2017-10-26T01:09:39.967Z,0
2017-10-26T01:10:20.412Z,0
2017-10-26T01:11:00.865Z,0
2017-10-26T01:11:41.319Z,0
2017-10-26T01:12:21.781Z,0
2017-10-26T01:13:02.238Z,0
2017-10-26T01:13:42.693Z,0
2017-10-26T01:14:23.151Z,0
2017-10-26T01:15:03.607Z,0
2017-10-26T01:15:44.073Z,0
2017-10-26T01:16:24.528Z,0
2017-10-26T01:17:04.985Z,0
2017-10-26T01:17:45.457Z,0
2017-10-26T01:18:25.908Z,0
2017-10-26T01:19:06.364Z,0
2017-10-26T01:19:46.830Z,0
2017-10-26T01:20:27.294Z,0
2017-10-26T01:21:07.749Z,0
2017-10-26T01:21:48.199Z,0
2017-10-26T01:22:28.657Z,0
2017-10-26T01:23:09.109Z,0
2017-10-26T01:23:49.574Z,0
2017-10-26T01:24:30.016Z,0
2017-10-26T01:25:10.471Z,0
2017-10-26T01:25:50.932Z,0
2017-10-26T01:26:31.375Z,0
2017-10-26T01:27:11.821Z,0
2017-10-26T01:27:52.270Z,0
2017-10-26T01:28:32.736Z,0
2017-10-26T01:29:13.174Z,0
2017-10-26T01:29:53.681Z,0
2017-10-26T01:30:34.128Z,0
2017-10-26T01:31:14.584Z,0
2017-10-26T01:31:55.032Z,0
2017-10-26T01:32:35.487Z,0
2017-10-26T01:33:15.947Z,0
2017-10-26T01:33:56.400Z,0
2017-10-26T01:34:36.862Z,0
2017-10-26T01:35:17.328Z,0
2017-10-26T01:35:57.764Z,0
2017-10-26T01:36:38.226Z,0
2017-10-26T01:37:18.658Z,0
2017-10-26T01:37:59.103Z,0
2017-10-26T01:38:39.557Z,0
2017-10-26T01:39:20.019Z,0
2017-10-26T01:40:00.483Z,0
2017-10-26T01:40:40.942Z,0
2017-10-26T01:41:21.404Z,0
2017-10-26T01:42:01.856Z,0
2017-10-26T01:42:42.308Z,0
2017-10-26T01:43:22.765Z,0
2017-10-26T01:44:03.230Z,0
2017-10-26T01:44:43.669Z,0
2017-10-26T01:45:24.116Z,0
2017-10-26T01:46:04.564Z,0
2017-10-26T01:46:45.024Z,0
2017-10-26T01:47:25.480Z,0
2017-10-26T01:48:05.976Z,0
2017-10-26T01:48:46.418Z,0
2017-10-26T01:49:26.873Z,0
2017-10-26T01:50:07.343Z,0
2017-10-26T01:50:47.804Z,0
2017-10-26T01:51:28.312Z,0
2017-10-26T01:52:08.783Z,0
2017-10-26T01:52:49.242Z,0
2017-10-26T01:53:29.700Z,0
2017-10-26T01:54:10.144Z,0
2017-10-26T01:54:50.603Z,0
2017-10-26T01:55:31.052Z,0
2017-10-26T01:56:11.498Z,0
2017-10-26T01:56:51.942Z,0
2017-10-26T01:57:32.391Z,0
2017-10-26T01:58:12.851Z,0
2017-10-26T01:58:53.304Z,0
2017-10-26T01:59:33.768Z,0
2017-10-26T02:00:14.228Z,0
2017-10-26T02:00:54.687Z,0
2017-10-26T02:01:35.161Z,0
2017-10-26T02:02:30.352Z,0
2017-10-26T02:03:10.832Z,0
2017-10-26T02:03:51.287Z,0
2017-10-26T02:04:31.746Z,0
2017-10-26T02:05:12.195Z,0
2017-10-26T02:05:52.639Z,0
2017-10-26T02:06:33.094Z,0
2017-10-26T02:07:13.554Z,0
2017-10-26T02:07:54.018Z,0
2017-10-26T02:08:34.472Z,0
2017-10-26T02:09:14.921Z,0
2017-10-26T02:09:55.376Z,0
2017-10-26T02:10:35.850Z,0
2017-10-26T02:11:16.288Z,0
2017-10-26T02:11:56.737Z,0
2017-10-26T02:12:37.201Z,0
2017-10-26T02:13:17.652Z,0
2017-10-26T02:13:58.132Z,0
2017-10-26T02:14:38.585Z,0
2017-10-26T02:15:19.038Z,0
2017-10-26T02:15:59.473Z,0
2017-10-26T02:16:39.938Z,0
2017-10-26T02:17:20.387Z,0
2017-10-26T02:18:00.835Z,0
2017-10-26T02:18:41.310Z,0
2017-10-26T02:19:21.776Z,0
2017-10-26T02:20:02.231Z,0
2017-10-26T02:20:42.681Z,0
2017-10-26T02:21:23.131Z,0
2017-10-26T02:22:03.581Z,0
2017-10-26T02:22:44.042Z,0
2017-10-26T02:23:24.498Z,0
2017-10-26T02:24:04.964Z,0
2017-10-26T02:24:45.415Z,0
2017-10-26T02:25:25.866Z,0
2017-10-26T02:26:06.326Z,0
2017-10-26T02:26:46.786Z,0
2017-10-26T02:27:27.222Z,0
2017-10-26T02:28:07.687Z,0
2017-10-26T02:28:48.135Z,0
2017-10-26T02:29:28.587Z,0
2017-10-26T02:30:09.049Z,0
2017-10-26T02:30:49.512Z,0
2017-10-26T02:31:29.965Z,0
2017-10-26T02:32:10.425Z,0
2017-10-26T02:32:50.877Z,0
2017-10-26T02:33:31.351Z,0
2017-10-26T02:34:11.794Z,0
2017-10-26T02:34:52.239Z,0
2017-10-26T02:35:32.688Z,0
2017-10-26T02:36:13.145Z,0
2017-10-26T02:36:53.594Z,0
2017-10-26T02:37:34.056Z,0
2017-10-26T02:38:14.518Z,0
2017-10-26T02:38:54.976Z,0
2017-10-26T02:39:35.424Z,0
2017-10-26T02:40:15.886Z,0
2017-10-26T02:40:56.326Z,0
2017-10-26T02:41:36.774Z,0
2017-10-26T02:42:17.226Z,0
2017-10-26T02:42:57.687Z,0
2017-10-26T02:43:38.143Z,0
2017-10-26T02:44:18.596Z,0
2017-10-26T02:44:59.051Z,0
2017-10-26T02:45:39.506Z,0
2017-10-26T02:46:19.951Z,0
2017-10-26T02:47:00.403Z,0
2017-10-26T02:47:40.868Z,0
2017-10-26T02:48:21.322Z,0
2017-10-26T02:49:01.789Z,0
2017-10-26T02:49:42.241Z,0
2017-10-26T02:50:22.700Z,0
2017-10-26T02:51:03.150Z,0
2017-10-26T02:51:43.615Z,0
2017-10-26T02:52:24.084Z,0
2017-10-26T02:53:04.526Z,0
2017-10-26T02:53:44.978Z,0
2017-10-26T02:54:25.439Z,0
2017-10-26T02:55:05.896Z,0
2017-10-26T02:55:46.346Z,0
2017-10-26T02:56:26.811Z,0
2017-10-26T02:57:07.279Z,0
2017-10-26T02:57:47.743Z,0
2017-10-26T02:58:28.198Z,0
2017-10-26T02:59:08.663Z,0
2017-10-26T02:59:49.127Z,0
2017-10-26T03:00:29.581Z,0
2017-10-26T03:01:10.038Z,0
2017-10-26T03:01:50.496Z,0
2017-10-26T03:02:30.947Z,0
2017-10-26T03:03:11.394Z,0
2017-10-26T03:03:51.860Z,0
2017-10-26T03:04:32.323Z,0
2017-10-26T03:05:12.787Z,0
2017-10-26T03:05:53.254Z,0
2017-10-26T03:06:33.716Z,0
2017-10-26T03:07:14.170Z,0
2017-10-26T03:07:54.624Z,0
2017-10-26T03:08:35.079Z,0
2017-10-26T03:09:15.537Z,0
2017-10-26T03:09:55.998Z,0
2017-10-26T03:10:36.446Z,0
2017-10-26T03:11:16.902Z,0
2017-10-26T03:11:57.359Z,0
2017-10-26T03:12:37.819Z,0
2017-10-26T03:13:18.298Z,0
2017-10-26T03:13:58.732Z,0
2017-10-26T03:14:39.188Z,0
2017-10-26T03:15:19.656Z,0
2017-10-26T03:16:00.114Z,0
2017-10-26T03:16:40.560Z,0
2017-10-26T03:17:21.012Z,0
2017-10-26T03:18:01.460Z,0
2017-10-26T03:18:41.918Z,0
2017-10-26T03:19:22.379Z,0
2017-10-26T03:20:02.833Z,0
2017-10-26T03:20:43.279Z,0
2017-10-26T03:21:23.735Z,0
2017-10-26T03:22:04.199Z,0
2017-10-26T03:22:44.663Z,0
2017-10-26T03:23:25.115Z,0
2017-10-26T03:24:05.565Z,0
2017-10-26T03:24:46.014Z,0
2017-10-26T03:25:26.464Z,0
2017-10-26T03:26:06.912Z,0
2017-10-26T03:26:47.369Z,0
2017-10-26T03:27:27.818Z,0
2017-10-26T03:28:08.265Z,0
2017-10-26T03:28:48.726Z,0
2017-10-26T03:29:29.183Z,0
2017-10-26T03:30:09.642Z,0
2017-10-26T03:30:50.096Z,0
2017-10-26T03:31:30.546Z,0
2017-10-26T03:32:11.001Z,0
2017-10-26T03:32:51.461Z,0
2017-10-26T03:33:31.910Z,0
2017-10-26T03:34:12.372Z,0
2017-10-26T03:34:52.825Z,0
2017-10-26T03:35:33.288Z,0
2017-10-26T03:36:13.744Z,0
2017-10-26T03:36:54.212Z,0
2017-10-26T03:37:34.672Z,0
2017-10-26T03:38:15.121Z,0
2017-10-26T03:38:55.571Z,0
2017-10-26T03:39:36.026Z,0
2017-10-26T03:40:16.483Z,0
2017-10-26T03:40:56.936Z,0
2017-10-26T03:41:37.407Z,0
2017-10-26T03:42:17.952Z,0
2017-10-26T03:42:58.297Z,0
2017-10-26T03:43:38.750Z,0
2017-10-26T03:44:19.196Z,0
2017-10-26T03:44:59.659Z,0
2017-10-26T03:45:40.379Z,0
2017-10-26T03:46:20.820Z,0
2017-10-26T03:47:01.273Z,0
2017-10-26T03:47:41.739Z,0
2017-10-26T03:48:22.167Z,0
2017-10-26T03:49:02.626Z,0
2017-10-26T03:49:43.079Z,0
2017-10-26T03:50:23.530Z,0
2017-10-26T03:51:04.001Z,0
2017-10-26T03:51:44.456Z,0
2017-10-26T03:52:24.913Z,0
2017-10-26T03:53:05.355Z,0
2017-10-26T03:53:45.811Z,0
2017-10-26T03:54:26.257Z,0
2017-10-26T03:55:06.706Z,0
2017-10-26T03:55:47.145Z,0
2017-10-26T03:56:27.586Z,0
2017-10-26T03:57:08.034Z,0
2017-10-26T03:57:48.486Z,0
2017-10-26T03:58:28.923Z,0
2017-10-26T03:59:09.378Z,0
2017-10-26T03:59:49.838Z,0
2017-10-26T04:00:30.300Z,0
2017-10-26T04:01:10.759Z,0
2017-10-26T04:01:51.240Z,0
2017-10-26T04:02:31.815Z,0
2017-10-26T04:03:12.269Z,0
2017-10-26T04:03:52.745Z,0
2017-10-26T04:04:33.201Z,0
2017-10-26T04:05:13.654Z,0
2017-10-26T04:05:54.101Z,0
2017-10-26T04:06:34.551Z,0
2017-10-26T04:07:14.991Z,0
2017-10-26T04:07:55.439Z,0
2017-10-26T04:08:35.891Z,0
2017-10-26T04:09:16.360Z,0
2017-10-26T04:09:56.809Z,0
2017-10-26T04:10:37.245Z,0
2017-10-26T04:11:17.692Z,0
2017-10-26T04:11:58.139Z,0
2017-10-26T04:12:38.555Z,0
2017-10-26T04:13:19.000Z,0
2017-10-26T04:13:59.467Z,0
2017-10-26T04:14:39.913Z,0
2017-10-26T04:15:20.361Z,0
2017-10-26T04:16:00.821Z,0
2017-10-26T04:16:41.277Z,0
2017-10-26T04:17:21.740Z,0
2017-10-26T04:18:02.195Z,0
2017-10-26T04:18:42.641Z,0
2017-10-26T04:19:23.095Z,0
2017-10-26T04:20:03.550Z,0
2017-10-26T04:20:43.986Z,0
2017-10-26T04:21:24.451Z,0
2017-10-26T04:22:04.900Z,0
2017-10-26T04:22:45.352Z,0
2017-10-26T04:23:25.799Z,0
2017-10-26T04:24:06.260Z,0
2017-10-26T04:24:46.714Z,0
2017-10-26T04:25:27.183Z,0
2017-10-26T04:26:07.647Z,0
2017-10-26T04:26:48.109Z,0
2017-10-26T04:27:28.548Z,0
2017-10-26T04:28:08.992Z,0
2017-10-26T04:28:49.463Z,0
2017-10-26T04:29:29.919Z,0
2017-10-26T04:30:10.383Z,0
2017-10-26T04:30:50.834Z,0
2017-10-26T04:31:31.287Z,0
2017-10-26T04:32:11.731Z,0
2017-10-26T04:32:52.181Z,0
2017-10-26T04:33:32.644Z,0
2017-10-26T04:34:13.534Z,0
2017-10-26T04:34:53.977Z,0
2017-10-26T04:35:34.425Z,0
2017-10-26T04:36:14.872Z,0
2017-10-26T04:36:55.332Z,0
2017-10-26T04:37:35.769Z,0
2017-10-26T04:38:16.228Z,0
2017-10-26T04:38:56.675Z,0
2017-10-26T04:39:37.123Z,0
2017-10-26T04:40:17.571Z,0
2017-10-26T04:40:58.010Z,0
2017-10-26T04:41:38.472Z,0
2017-10-26T04:42:19.121Z,0
2017-10-26T04:42:59.447Z,0
2017-10-26T04:43:39.903Z,0
2017-10-26T04:44:20.366Z,0
2017-10-26T04:45:00.812Z,0
2017-10-26T04:45:41.265Z,0
2017-10-26T04:46:21.710Z,0
2017-10-26T04:47:02.159Z,0
2017-10-26T04:47:42.612Z,0
2017-10-26T04:48:23.066Z,0
2017-10-26T04:49:03.532Z,0
2017-10-26T04:49:44.045Z,0
2017-10-26T04:50:24.431Z,0
2017-10-26T04:51:04.897Z,0
2017-10-26T04:51:45.349Z,0
2017-10-26T04:52:25.800Z,0
2017-10-26T04:53:06.251Z,0
2017-10-26T04:53:46.699Z,0
2017-10-26T04:54:27.158Z,0
2017-10-26T04:55:07.601Z,0
2017-10-26T04:55:48.052Z,0
2017-10-26T04:56:28.501Z,0
2017-10-26T04:57:08.957Z,0
2017-10-26T04:57:49.404Z,0
2017-10-26T04:58:29.858Z,0
2017-10-26T04:59:10.310Z,0
2017-10-26T04:59:50.759Z,0
2017-10-26T05:00:31.326Z,0
2017-10-26T05:01:11.773Z,0
2017-10-26T05:01:52.221Z,0
2017-10-26T05:02:32.662Z,0
2017-10-26T05:03:13.111Z,0
2017-10-26T05:03:53.586Z,0
2017-10-26T05:04:34.036Z,0
2017-10-26T05:05:14.490Z,0
2017-10-26T05:05:54.952Z,0
2017-10-26T05:06:35.413Z,0
2017-10-26T05:07:15.857Z,0
2017-10-26T05:07:56.313Z,0
2017-10-26T05:08:36.769Z,0
2017-10-26T05:09:17.212Z,0
2017-10-26T05:09:57.671Z,0
2017-10-26T05:10:38.120Z,0
2017-10-26T05:11:18.591Z,0
2017-10-26T05:11:59.048Z,0
2017-10-26T05:12:39.501Z,0
2017-10-26T05:13:19.965Z,0
2017-10-26T05:14:00.410Z,0
2017-10-26T05:14:40.859Z,0
2017-10-26T05:15:21.305Z,0
2017-10-26T05:16:01.766Z,0
2017-10-26T05:16:42.223Z,0
2017-10-26T05:17:22.670Z,0
2017-10-26T05:18:03.129Z,0
2017-10-26T05:18:43.567Z,0
2017-10-26T05:19:24.030Z,0
2017-10-26T05:20:04.486Z,0
2017-10-26T05:20:44.963Z,0
2017-10-26T05:21:25.421Z,0
2017-10-26T05:22:05.900Z,0
2017-10-26T05:22:46.330Z,0
2017-10-26T05:23:26.751Z,0
2017-10-26T05:24:07.238Z,0
2017-10-26T05:26:41.267Z,0
2017-10-26T05:27:21.879Z,0
2017-10-26T05:28:02.327Z,0
2017-10-26T05:28:42.782Z,0
2017-10-26T05:29:23.292Z,0
2017-10-26T05:30:03.758Z,0
2017-10-26T05:30:44.194Z,0
2017-10-26T05:31:24.673Z,0
2017-10-26T05:32:05.142Z,0
2017-10-26T05:32:45.593Z,0
2017-10-26T05:33:26.053Z,0
2017-10-26T05:34:06.532Z,0
2017-10-26T05:34:46.966Z,0
2017-10-26T05:35:30.277Z,0
2017-10-26T05:36:10.762Z,0
2017-10-26T05:36:51.211Z,0
2017-10-26T05:37:31.668Z,0
2017-10-26T05:38:12.110Z,0
2017-10-26T05:38:52.546Z,0
2017-10-26T05:41:30.759Z,0
2017-10-26T05:42:11.212Z,0
2017-10-26T05:42:51.672Z,0
2017-10-26T05:43:32.125Z,0
2017-10-26T05:44:12.591Z,0
2017-10-26T05:44:53.040Z,0
2017-10-26T05:45:33.491Z,0
2017-10-26T05:46:13.938Z,0
2017-10-26T05:46:54.411Z,0
2017-10-26T05:47:34.854Z,0
2017-10-26T05:48:15.310Z,0
2017-10-26T05:48:55.772Z,0
2017-10-26T05:49:36.220Z,0
2017-10-26T05:50:16.679Z,0
2017-10-26T05:50:57.116Z,0
2017-10-26T05:51:37.576Z,0
2017-10-26T05:52:18.026Z,0
2017-10-26T05:52:58.471Z,0
2017-10-26T05:53:38.925Z,0
2017-10-26T05:54:19.377Z,0
2017-10-26T05:54:59.842Z,0
2017-10-26T05:55:40.288Z,0
2017-10-26T05:56:20.747Z,0
2017-10-26T05:57:01.200Z,0
2017-10-26T05:57:41.659Z,0
2017-10-26T05:58:22.099Z,0
2017-10-26T05:59:02.559Z,0
2017-10-26T05:59:43.023Z,0
2017-10-26T06:00:23.477Z,0
2017-10-26T06:01:03.919Z,0
2017-10-26T06:01:44.373Z,0
2017-10-26T06:02:24.829Z,0
2017-10-26T06:03:05.267Z,0
2017-10-26T06:03:45.720Z,0
2017-10-26T06:04:26.167Z,0
2017-10-26T06:05:06.619Z,0
2017-10-26T06:05:47.071Z,0
2017-10-26T06:06:27.518Z,0
2017-10-26T06:07:07.970Z,0
2017-10-26T06:07:48.429Z,0
2017-10-26T06:08:28.898Z,0
2017-10-26T06:09:09.346Z,0
2017-10-26T06:09:50.239Z,0
2017-10-26T06:10:30.693Z,0
2017-10-26T06:11:11.159Z,0
2017-10-26T06:11:51.605Z,0
2017-10-26T06:12:32.060Z,0
2017-10-26T06:13:12.513Z,0
2017-10-26T06:13:52.983Z,0
2017-10-26T06:14:33.437Z,0
2017-10-26T06:15:13.903Z,0
2017-10-26T06:15:54.347Z,0
2017-10-26T06:16:34.797Z,0
2017-10-26T06:17:15.243Z,0
2017-10-26T06:17:55.692Z,0
2017-10-26T06:18:36.153Z,0
2017-10-26T06:19:16.604Z,0
2017-10-26T06:19:57.054Z,0
2017-10-26T06:20:37.525Z,0
2017-10-26T06:21:17.982Z,0
2017-10-26T06:21:58.444Z,0
2017-10-26T06:22:38.892Z,0
2017-10-26T06:23:19.348Z,0
2017-10-26T06:23:59.803Z,0
2017-10-26T06:24:40.252Z,0
2017-10-26T06:25:20.712Z,0
2017-10-26T06:26:01.182Z,0
2017-10-26T06:26:41.631Z,0
2017-10-26T06:27:22.086Z,0
2017-10-26T06:28:02.553Z,0
2017-10-26T06:28:43.005Z,0
2017-10-26T06:29:23.450Z,0
2017-10-26T06:30:03.901Z,0
2017-10-26T06:32:21.790Z,0
2017-10-26T06:33:02.245Z,0
2017-10-26T06:33:42.702Z,0
2017-10-26T06:34:23.163Z,0
2017-10-26T06:35:03.614Z,5
2017-10-26T06:35:44.072Z,5
2017-10-26T06:36:24.518Z,5
2017-10-26T06:37:04.970Z,5
2017-10-26T06:37:45.407Z,5
2017-10-26T06:38:25.862Z,5
2017-10-26T06:39:06.317Z,5
2017-10-26T06:39:46.746Z,5
2017-10-26T06:40:27.196Z,5
2017-10-26T06:41:07.648Z,10
2017-10-26T06:41:48.097Z,10
2017-10-26T06:42:28.560Z,10
2017-10-26T06:43:09.008Z,10
2017-10-26T06:43:49.452Z,10
2017-10-26T06:44:29.959Z,10
2017-10-26T06:45:10.424Z,10
2017-10-26T06:45:50.853Z,10
2017-10-26T06:46:31.301Z,10
2017-10-26T06:47:11.746Z,10
2017-10-26T06:47:52.198Z,10
2017-10-26T06:48:32.655Z,10
2017-10-26T06:49:13.093Z,10
2017-10-26T06:49:53.545Z,15
2017-10-26T06:50:33.995Z,15
2017-10-26T06:51:14.453Z,15
2017-10-26T06:51:54.909Z,15
2017-10-26T06:52:35.359Z,15
2017-10-26T06:53:15.805Z,15
2017-10-26T06:53:56.263Z,15
2017-10-26T06:54:36.720Z,15
2017-10-26T06:55:17.166Z,20
2017-10-26T06:55:57.632Z,20
2017-10-26T06:56:38.059Z,20
2017-10-26T06:57:18.512Z,20
2017-10-26T06:57:58.969Z,20
2017-10-26T06:58:39.416Z,20
2017-10-26T06:59:19.871Z,20
2017-10-26T07:00:00.328Z,20
2017-10-26T07:00:40.784Z,25
2017-10-26T07:01:21.232Z,30
2017-10-26T07:02:01.693Z,35
2017-10-26T07:02:42.148Z,35
2017-10-26T07:03:22.597Z,35
2017-10-26T07:04:03.045Z,40
2017-10-26T07:04:43.498Z,45
2017-10-26T07:05:23.945Z,45
2017-10-26T07:06:04.402Z,40
2017-10-26T07:06:44.871Z,45
2017-10-26T07:07:25.324Z,45
2017-10-26T07:08:05.782Z,45
2017-10-26T07:08:46.228Z,50
2017-10-26T07:09:26.678Z,50
2017-10-26T07:10:07.132Z,55
2017-10-26T07:10:47.582Z,55
2017-10-26T07:11:28.037Z,40
2017-10-26T07:12:08.498Z,35
2017-10-26T07:12:48.946Z,35
2017-10-26T07:13:29.400Z,40
2017-10-26T07:14:09.885Z,35
2017-10-26T07:14:50.340Z,40
2017-10-26T07:15:30.818Z,45
2017-10-26T07:16:11.259Z,55
2017-10-26T07:16:51.738Z,50
2017-10-26T07:17:32.192Z,50
2017-10-26T07:18:12.656Z,60
2017-10-26T07:18:53.109Z,60
2017-10-26T07:19:33.557Z,60
2017-10-26T07:20:14.018Z,75
2017-10-26T07:20:54.476Z,85
2017-10-26T07:21:34.927Z,90
2017-10-26T07:22:15.383Z,90
2017-10-26T07:22:55.829Z,90
2017-10-26T07:23:36.284Z,95
2017-10-26T07:24:16.734Z,95
2017-10-26T07:24:57.212Z,95
2017-10-26T07:25:37.670Z,85
2017-10-26T07:26:18.138Z,80
2017-10-26T07:26:58.597Z,80
2017-10-26T07:27:39.051Z,90
2017-10-26T07:28:19.507Z,95
2017-10-26T07:28:59.965Z,100
2017-10-26T07:29:40.419Z,100
2017-10-26T07:30:20.871Z,95
2017-10-26T07:31:01.326Z,90
2017-10-26T07:31:41.779Z,85
2017-10-26T07:32:22.251Z,75
2017-10-26T07:33:02.702Z,60
2017-10-26T07:33:43.154Z,60
2017-10-26T07:34:23.604Z,55
2017-10-26T07:35:04.063Z,50
2017-10-26T07:35:44.519Z,50
2017-10-26T07:36:24.975Z,50
2017-10-26T07:37:05.440Z,45
2017-10-26T07:37:45.882Z,40
2017-10-26T07:38:26.358Z,35
2017-10-26T07:39:06.844Z,30
2017-10-26T07:39:47.295Z,30
2017-10-26T07:40:27.760Z,35
2017-10-26T07:41:08.215Z,35
2017-10-26T07:41:48.671Z,30
2017-10-26T07:42:29.136Z,30
2017-10-26T07:43:09.588Z,30
2017-10-26T07:43:50.035Z,30
2017-10-26T07:44:30.514Z,30
2017-10-26T07:45:10.955Z,30
2017-10-26T07:45:51.413Z,30
2017-10-26T07:46:31.871Z,30
2017-10-26T07:47:12.327Z,30
2017-10-26T07:47:52.773Z,30
2017-10-26T07:48:33.223Z,35
2017-10-26T07:49:13.685Z,35
2017-10-26T07:49:54.143Z,35
2017-10-26T07:50:34.592Z,35
2017-10-26T07:51:15.042Z,40
2017-10-26T07:51:55.510Z,45
2017-10-26T07:52:35.957Z,40
2017-10-26T07:53:16.406Z,40
2017-10-26T07:53:56.856Z,40
2017-10-26T07:54:37.319Z,45
2017-10-26T07:55:17.768Z,50
2017-10-26T07:55:58.212Z,50
2017-10-26T07:56:38.659Z,50
2017-10-26T07:57:19.116Z,50
2017-10-26T07:57:59.565Z,50
2017-10-26T07:58:40.014Z,50
2017-10-26T07:59:20.469Z,45
2017-10-26T08:00:00.921Z,50
2017-10-26T08:00:41.378Z,55
2017-10-26T08:01:21.833Z,55
2017-10-26T08:02:02.281Z,55
2017-10-26T08:02:42.745Z,50
2017-10-26T08:03:23.193Z,55
2017-10-26T08:04:03.643Z,55
2017-10-26T08:04:44.108Z,60
2017-10-26T08:05:24.563Z,60
2017-10-26T08:06:05.006Z,60
2017-10-26T08:06:45.455Z,70
2017-10-26T08:07:25.921Z,75
2017-10-26T08:08:06.374Z,75
2017-10-26T08:08:46.833Z,80
2017-10-26T08:09:27.290Z,75
2017-10-26T08:10:07.746Z,75
2017-10-26T08:10:48.201Z,90
2017-10-26T08:11:28.661Z,110
2017-10-26T08:12:09.107Z,130
2017-10-26T08:12:49.595Z,135
2017-10-26T08:13:30.025Z,135
2017-10-26T08:14:10.478Z,140
2017-10-26T08:14:50.935Z,155
2017-10-26T08:15:31.393Z,150
2017-10-26T08:16:11.849Z,140
2017-10-26T08:16:52.297Z,155
2017-10-26T08:17:32.744Z,170
2017-10-26T08:18:13.197Z,180
2017-10-26T08:18:53.646Z,170
2017-10-26T08:19:34.096Z,180
2017-10-26T08:20:14.536Z,150
2017-10-26T08:20:54.984Z,140
2017-10-26T08:21:35.430Z,135
2017-10-26T08:22:15.893Z,145
2017-10-26T08:22:56.342Z,185
2017-10-26T08:23:36.793Z,185
2017-10-26T08:24:17.254Z,140
2017-10-26T08:24:57.706Z,105
2017-10-26T08:25:38.158Z,90
2017-10-26T08:26:18.617Z,90
2017-10-26T08:26:59.072Z,95
2017-10-26T08:27:39.546Z,105
2017-10-26T08:28:20.008Z,105
2017-10-26T08:29:00.463Z,120
2017-10-26T08:29:40.922Z,120
2017-10-26T08:30:21.364Z,120
2017-10-26T08:31:01.816Z,120
2017-10-26T08:31:42.252Z,120
2017-10-26T08:32:22.708Z,90
2017-10-26T08:33:03.195Z,95
2017-10-26T08:33:43.717Z,105
2017-10-26T08:34:24.163Z,85
2017-10-26T08:35:04.612Z,80
2017-10-26T08:35:45.073Z,100
2017-10-26T08:36:25.521Z,120
2017-10-26T08:37:05.974Z,145
2017-10-26T08:37:46.417Z,150
2017-10-26T08:38:26.877Z,150
2017-10-26T08:39:07.328Z,155
2017-10-26T08:39:47.779Z,140
2017-10-26T08:40:28.228Z,145
2017-10-26T08:41:08.679Z,150
2017-10-26T08:41:49.146Z,145
2017-10-26T08:42:29.603Z,145
2017-10-26T08:43:10.084Z,140
2017-10-26T08:43:50.511Z,150
2017-10-26T08:44:30.970Z,145
2017-10-26T08:45:11.419Z,140
2017-10-26T08:45:51.869Z,145
2017-10-26T08:46:32.379Z,145
2017-10-26T08:47:12.835Z,160
2017-10-26T08:47:53.293Z,160
2017-10-26T08:48:33.743Z,175
2017-10-26T08:49:14.201Z,190
2017-10-26T08:49:54.653Z,195
2017-10-26T08:50:35.107Z,190
2017-10-26T08:51:15.564Z,200
2017-10-26T08:51:56.007Z,200
2017-10-26T08:52:36.455Z,185
2017-10-26T08:53:16.920Z,180
2017-10-26T08:53:57.371Z,185
2017-10-26T08:54:37.818Z,185
2017-10-26T08:55:18.572Z,185
2017-10-26T08:55:59.022Z,185
2017-10-26T08:56:39.460Z,170
2017-10-26T08:57:19.910Z,170
2017-10-26T08:58:00.365Z,180
2017-10-26T08:58:40.816Z,175
2017-10-26T08:59:21.261Z,165
2017-10-26T09:00:01.712Z,160
2017-10-26T09:00:42.157Z,175
2017-10-26T09:01:22.604Z,185
2017-10-26T09:02:03.050Z,170
2017-10-26T09:02:43.497Z,185
2017-10-26T09:03:23.948Z,180
2017-10-26T09:04:04.396Z,200
2017-10-26T09:04:44.864Z,225
2017-10-26T09:05:25.319Z,230
2017-10-26T09:06:05.757Z,215
2017-10-26T09:06:46.220Z,220
2017-10-26T09:07:26.818Z,230
2017-10-26T09:08:07.272Z,230
2017-10-26T09:08:47.714Z,230
2017-10-26T09:09:28.172Z,230
2017-10-26T09:10:08.628Z,235
2017-10-26T09:10:49.084Z,240
2017-10-26T09:11:29.533Z,240
2017-10-26T09:12:09.993Z,235
2017-10-26T09:12:50.446Z,235
2017-10-26T09:13:30.898Z,245
2017-10-26T09:14:11.361Z,235
2017-10-26T09:14:51.822Z,240
2017-10-26T09:15:32.266Z,240
2017-10-26T09:16:12.715Z,240
2017-10-26T09:16:53.225Z,245
2017-10-26T09:17:33.682Z,235
2017-10-26T09:18:14.131Z,235
2017-10-26T09:18:54.592Z,230
2017-10-26T09:19:35.044Z,230
2017-10-26T09:20:15.505Z,230
2017-10-26T09:20:55.962Z,225
2017-10-26T09:21:36.420Z,200
2017-10-26T09:22:16.877Z,205
2017-10-26T09:22:57.323Z,220
2017-10-26T09:23:37.792Z,225
2017-10-26T09:24:18.245Z,225
2017-10-26T09:24:58.698Z,225
2017-10-26T09:25:39.155Z,220
2017-10-26T09:26:19.611Z,220
2017-10-26T09:27:00.075Z,220
2017-10-26T09:27:40.523Z,195
2017-10-26T09:28:20.972Z,220
2017-10-26T09:29:01.432Z,215
2017-10-26T09:29:41.882Z,225
2017-10-26T09:30:22.331Z,230
2017-10-26T09:31:02.790Z,225
2017-10-26T09:31:43.243Z,120
2017-10-26T09:32:23.699Z,235
2017-10-26T09:33:04.150Z,225
2017-10-26T09:33:44.613Z,225
2017-10-26T09:34:25.065Z,195
2017-10-26T09:35:05.512Z,210
2017-10-26T09:35:45.976Z,180
2017-10-26T09:36:26.429Z,190
2017-10-26T09:37:06.878Z,190
2017-10-26T09:37:47.322Z,210
2017-10-26T09:38:27.765Z,220
2017-10-26T09:39:08.243Z,210
2017-10-26T09:39:48.697Z,215
2017-10-26T09:40:29.156Z,230
2017-10-26T09:41:09.605Z,230
2017-10-26T09:41:50.075Z,220
2017-10-26T09:42:30.541Z,225
2017-10-26T09:43:10.985Z,225
2017-10-26T09:43:51.438Z,215
2017-10-26T09:44:31.914Z,195
2017-10-26T09:45:12.336Z,185
2017-10-26T09:45:52.794Z,200
2017-10-26T09:46:33.252Z,240
2017-10-26T09:47:13.703Z,240
2017-10-26T09:47:54.161Z,220
2017-10-26T09:48:34.604Z,205
2017-10-26T09:49:15.060Z,200
2017-10-26T09:49:55.511Z,215
2017-10-26T09:50:35.976Z,215
2017-10-26T09:51:16.432Z,215
2017-10-26T09:51:56.889Z,210
2017-10-26T09:52:37.349Z,215
2017-10-26T09:53:17.807Z,215